createdAt,value
2018-07-26T00:01:29.430Z,25.00
2018-07-26T00:03:58.443Z,24.90
2018-07-26T00:06:27.412Z,24.90
2018-07-26T00:08:56.354Z,24.90
2018-07-26T00:11:25.310Z,24.90
2018-07-26T00:13:54.308Z,24.90
2018-07-26T00:18:52.007Z,24.80
2018-07-26T00:21:21.023Z,24.80
2018-07-26T00:23:50.027Z,24.80
2018-07-26T00:26:18.950Z,24.70
2018-07-26T00:28:47.932Z,24.70
2018-07-26T00:31:16.936Z,24.70
2018-07-26T00:33:45.879Z,24.70
2018-07-26T00:36:14.856Z,24.70
2018-07-26T00:38:43.906Z,24.70
2018-07-26T00:41:12.933Z,24.70
2018-07-26T00:43:41.856Z,24.70
2018-07-26T00:46:11.100Z,24.70
2018-07-26T00:48:40.127Z,24.80
2018-07-26T00:51:09.101Z,24.70
2018-07-26T00:53:38.085Z,24.70
2018-07-26T00:56:07.167Z,24.80
2018-07-26T00:58:36.164Z,24.70
2018-07-26T01:01:05.143Z,24.70
2018-07-26T01:03:34.182Z,24.70
2018-07-26T01:06:03.183Z,24.60
2018-07-26T01:08:32.232Z,24.60
2018-07-26T01:11:01.208Z,24.60
2018-07-26T01:13:30.235Z,24.50
2018-07-26T01:15:59.215Z,24.50
2018-07-26T01:18:28.171Z,24.40
2018-07-26T01:20:57.183Z,24.40
2018-07-26T01:23:26.147Z,24.30
2018-07-26T01:25:55.101Z,24.30
2018-07-26T01:28:24.060Z,24.30
2018-07-26T01:30:53.016Z,24.30
2018-07-26T01:33:22.008Z,24.20
2018-07-26T01:35:51.019Z,24.20
2018-07-26T01:38:19.982Z,24.10
2018-07-26T01:40:48.923Z,24.10
2018-07-26T01:43:55.048Z,24.00
2018-07-26T01:46:25.182Z,24.00
2018-07-26T01:48:54.206Z,23.90
2018-07-26T01:51:23.190Z,23.80
2018-07-26T01:53:52.278Z,23.70
2018-07-26T01:56:21.290Z,23.70
2018-07-26T01:58:50.271Z,23.60
2018-07-26T02:01:19.283Z,23.60
2018-07-26T02:03:48.237Z,23.50
2018-07-26T02:06:17.183Z,23.50
2018-07-26T02:08:46.181Z,23.50
2018-07-26T02:11:15.227Z,23.50
2018-07-26T02:13:44.243Z,23.50
2018-07-26T02:16:13.182Z,23.40
2018-07-26T02:18:42.214Z,23.40
2018-07-26T02:21:11.142Z,23.40
2018-07-26T02:23:40.079Z,23.30
2018-07-26T02:26:09.074Z,23.30
2018-07-26T02:28:38.039Z,23.20
2018-07-26T02:31:07.109Z,23.20
2018-07-26T02:33:36.054Z,23.20
2018-07-26T02:36:05.044Z,23.20
2018-07-26T02:38:34.079Z,23.10
2018-07-26T02:41:03.056Z,23.10
2018-07-26T02:43:31.979Z,23.10
2018-07-26T02:46:00.975Z,23.00
2018-07-26T02:48:29.942Z,23.00
2018-07-26T02:50:58.904Z,23.00
2018-07-26T02:53:27.919Z,22.90
2018-07-26T02:55:56.960Z,22.90
2018-07-26T02:58:25.947Z,22.90
2018-07-26T03:00:54.918Z,22.80
2018-07-26T03:03:23.866Z,22.80
2018-07-26T03:05:52.854Z,22.80
2018-07-26T03:08:21.855Z,22.70
2018-07-26T03:10:50.907Z,22.70
2018-07-26T03:13:19.864Z,22.70
2018-07-26T03:15:48.807Z,22.60
2018-07-26T03:20:46.731Z,22.60
2018-07-26T03:23:15.649Z,22.50
2018-07-26T03:25:44.893Z,22.50
2018-07-26T03:28:13.863Z,22.50
2018-07-26T03:30:42.952Z,22.40
2018-07-26T03:33:11.918Z,22.40
2018-07-26T03:35:40.888Z,22.40
2018-07-26T03:38:10.022Z,22.40
2018-07-26T03:40:39.029Z,22.40
2018-07-26T03:43:08.032Z,22.30
2018-07-26T03:45:37.003Z,22.30
2018-07-26T03:48:06.075Z,22.30
2018-07-26T03:50:35.071Z,22.30
2018-07-26T03:53:04.054Z,22.20
2018-07-26T03:55:33.061Z,22.20
2018-07-26T03:58:02.106Z,22.20
2018-07-26T04:00:31.101Z,22.20
2018-07-26T04:03:00.083Z,22.20
2018-07-26T04:05:29.068Z,22.30
2018-07-26T04:07:58.031Z,22.30
2018-07-26T04:10:27.017Z,22.30
2018-07-26T04:12:56.267Z,22.40
2018-07-26T04:15:25.310Z,22.40
2018-07-26T04:18:01.807Z,22.50
2018-07-26T04:20:30.830Z,22.50
2018-07-26T04:23:06.278Z,22.60
2018-07-26T04:25:35.302Z,22.60
2018-07-26T04:28:04.287Z,22.70
2018-07-26T04:30:33.244Z,22.70
2018-07-26T04:33:02.259Z,22.80
2018-07-26T04:35:31.262Z,22.80
2018-07-26T04:38:00.279Z,22.90
2018-07-26T04:40:29.255Z,22.90
2018-07-26T04:42:58.303Z,22.90
2018-07-26T04:45:27.256Z,23.00
2018-07-26T04:47:56.244Z,23.10
2018-07-26T04:50:25.209Z,23.00
2018-07-26T04:52:54.250Z,23.10
2018-07-26T04:55:23.217Z,23.10
2018-07-26T04:57:52.295Z,23.10
2018-07-26T05:00:21.297Z,23.00
2018-07-26T05:02:50.346Z,23.00
2018-07-26T05:05:19.347Z,23.00
2018-07-26T05:07:48.335Z,23.00
2018-07-26T05:10:17.413Z,23.00
2018-07-26T05:12:46.461Z,23.00
2018-07-26T05:15:15.470Z,23.10
2018-07-26T05:17:44.442Z,23.20
2018-07-26T05:20:13.407Z,23.20
2018-07-26T05:22:42.418Z,23.30
2018-07-26T05:25:11.382Z,23.30
2018-07-26T05:27:40.500Z,23.40
2018-07-26T05:30:09.670Z,23.50
2018-07-26T05:32:38.659Z,23.60
2018-07-26T05:35:07.746Z,23.70
2018-07-26T05:37:36.766Z,23.80
2018-07-26T05:40:05.918Z,23.90
2018-07-26T05:42:34.929Z,24.00
2018-07-26T05:45:04.140Z,24.00
2018-07-26T05:47:33.219Z,24.10
2018-07-26T05:50:02.356Z,24.20
2018-07-26T05:52:31.395Z,24.30
2018-07-26T05:55:00.460Z,24.40
2018-07-26T05:57:29.433Z,24.50
2018-07-26T05:59:58.478Z,24.60
2018-07-26T06:02:27.895Z,24.80
2018-07-26T06:04:57.013Z,24.90
2018-07-26T06:07:26.058Z,25.00
2018-07-26T06:09:55.060Z,25.10
2018-07-26T06:12:24.096Z,25.30
2018-07-26T06:14:53.093Z,25.40
2018-07-26T06:17:22.075Z,25.60
2018-07-26T06:19:51.089Z,25.70
2018-07-26T06:22:20.064Z,25.80
2018-07-26T06:24:49.103Z,26.00
2018-07-26T06:27:18.067Z,26.00
2018-07-26T06:29:47.110Z,26.20
2018-07-26T06:32:16.107Z,26.40
2018-07-26T06:34:45.090Z,26.50
2018-07-26T06:37:14.031Z,26.60
2018-07-26T06:39:43.274Z,26.70
2018-07-26T06:42:12.281Z,26.80
2018-07-26T06:44:41.307Z,27.00
2018-07-26T06:47:10.939Z,27.10
2018-07-26T06:49:39.967Z,27.20
2018-07-26T06:52:09.051Z,27.40
2018-07-26T06:54:38.075Z,27.50
2018-07-26T06:57:07.082Z,27.60
2018-07-26T06:59:36.098Z,27.80
2018-07-26T07:02:05.104Z,27.80
2018-07-26T07:04:34.163Z,28.00
2018-07-26T07:07:03.179Z,28.10
2018-07-26T07:09:32.160Z,28.20
2018-07-26T07:12:01.195Z,28.30
2018-07-26T07:14:30.336Z,28.40
2018-07-26T07:16:59.594Z,28.50
2018-07-26T07:19:28.606Z,28.70
2018-07-26T07:21:57.601Z,28.70
2018-07-26T07:24:26.547Z,28.80
2018-07-26T07:26:55.564Z,28.80
2018-07-26T07:29:24.648Z,28.80
2018-07-26T07:31:53.619Z,28.90
2018-07-26T07:34:22.589Z,29.00
2018-07-26T07:36:51.546Z,29.10
2018-07-26T07:39:20.573Z,29.20
2018-07-26T07:41:49.633Z,29.20
2018-07-26T07:44:18.619Z,29.30
2018-07-26T07:46:47.595Z,29.40
2018-07-26T07:49:16.639Z,29.40
2018-07-26T07:51:45.639Z,29.40
2018-07-26T07:54:14.707Z,29.50
2018-07-26T07:56:43.728Z,29.50
2018-07-26T07:59:12.857Z,29.50
2018-07-26T08:01:41.831Z,29.50
2018-07-26T08:04:10.795Z,29.50
2018-07-26T08:06:39.791Z,29.50
2018-07-26T08:09:11.099Z,29.40
2018-07-26T08:11:40.377Z,29.50
2018-07-26T08:14:09.903Z,29.50
2018-07-26T08:16:38.954Z,29.60
2018-07-26T08:19:07.928Z,29.70
2018-07-26T08:21:36.879Z,29.80
2018-07-26T08:24:05.954Z,29.80
2018-07-26T08:26:34.971Z,29.90
2018-07-26T08:29:04.300Z,29.80
2018-07-26T08:31:33.267Z,30.00
2018-07-26T08:34:02.247Z,30.00
2018-07-26T08:36:31.235Z,30.10
2018-07-26T08:39:00.171Z,30.20
2018-07-26T08:41:29.140Z,30.20
2018-07-26T08:43:58.119Z,30.30
2018-07-26T08:46:27.122Z,30.30
2018-07-26T08:48:56.121Z,30.40
2018-07-26T08:51:25.383Z,30.50
2018-07-26T08:53:54.469Z,30.50
2018-07-26T08:56:23.451Z,30.50
2018-07-26T08:58:52.492Z,30.60
2018-07-26T09:01:21.444Z,30.60
2018-07-26T09:03:50.399Z,30.60
2018-07-26T09:06:19.327Z,30.70
2018-07-26T09:08:48.315Z,30.80
2018-07-26T09:11:17.313Z,30.80
2018-07-26T09:13:46.289Z,30.80
2018-07-26T09:16:15.238Z,31.00
2018-07-26T09:18:44.197Z,31.00
2018-07-26T09:23:41.788Z,31.20
2018-07-26T09:26:10.745Z,31.30
2018-07-26T09:28:39.802Z,31.40
2018-07-26T09:31:08.815Z,31.40
2018-07-26T09:33:37.810Z,31.50
2018-07-26T09:36:06.825Z,31.50
2018-07-26T09:38:35.827Z,31.50
2018-07-26T09:41:04.832Z,31.60
2018-07-26T09:43:33.857Z,31.60
2018-07-26T09:46:02.847Z,31.70
2018-07-26T09:48:31.951Z,31.80
2018-07-26T09:51:00.964Z,31.90
2018-07-26T09:53:29.950Z,31.90
2018-07-26T09:55:58.928Z,31.90
2018-07-26T09:58:27.920Z,32.00
2018-07-26T10:01:02.302Z,32.00
2018-07-26T10:03:31.266Z,32.00
2018-07-26T10:06:00.247Z,32.00
2018-07-26T10:08:29.227Z,32.10
2018-07-26T10:10:58.196Z,32.10
2018-07-26T10:13:27.160Z,32.10
2018-07-26T10:15:56.185Z,32.10
2018-07-26T10:18:25.167Z,32.10
2018-07-26T10:20:54.227Z,32.10
2018-07-26T10:23:23.243Z,32.10
2018-07-26T10:25:52.223Z,32.10
2018-07-26T10:28:21.203Z,32.00
2018-07-26T10:30:50.170Z,32.10
2018-07-26T10:33:19.168Z,32.10
2018-07-26T10:35:48.183Z,32.10
2018-07-26T10:38:17.162Z,32.10
2018-07-26T10:40:46.154Z,32.10
2018-07-26T10:43:15.151Z,32.10
2018-07-26T10:45:44.211Z,32.30
2018-07-26T10:48:13.174Z,32.40
2018-07-26T10:50:42.206Z,32.50
2018-07-26T10:53:11.234Z,32.50
2018-07-26T10:55:40.374Z,32.70
2018-07-26T10:58:09.363Z,32.70
2018-07-26T11:00:38.359Z,32.60
2018-07-26T11:03:07.432Z,32.70
2018-07-26T11:05:36.499Z,32.80
2018-07-26T11:10:34.050Z,32.70
2018-07-26T11:13:03.031Z,32.80
2018-07-26T11:15:35.280Z,32.90
2018-07-26T11:18:04.595Z,32.80
2018-07-26T11:20:33.562Z,32.80
2018-07-26T11:23:02.542Z,32.70
2018-07-26T11:25:31.542Z,32.80
2018-07-26T11:28:00.487Z,32.80
2018-07-26T11:30:29.475Z,32.80
2018-07-26T11:32:58.441Z,32.90
2018-07-26T11:35:27.388Z,32.90
2018-07-26T11:37:56.444Z,33.00
2018-07-26T11:40:25.319Z,32.90
2018-07-26T11:45:22.921Z,32.90
2018-07-26T11:47:51.877Z,33.00
2018-07-26T11:50:20.920Z,33.10
2018-07-26T11:52:50.063Z,33.20
2018-07-26T11:55:18.983Z,33.30
2018-07-26T11:57:48.044Z,33.30
2018-07-26T12:00:17.023Z,33.40
2018-07-26T12:02:46.023Z,33.40
2018-07-26T12:05:14.960Z,33.50
2018-07-26T12:07:43.972Z,33.60
2018-07-26T12:10:12.960Z,33.70
2018-07-26T12:12:42.004Z,33.70
2018-07-26T12:15:10.992Z,33.70
2018-07-26T12:20:08.747Z,33.60
2018-07-26T12:22:37.716Z,33.60
2018-07-26T12:25:06.682Z,33.70
2018-07-26T12:27:35.654Z,33.70
2018-07-26T12:30:06.352Z,33.70
2018-07-26T12:32:35.374Z,33.70
2018-07-26T12:35:04.518Z,33.70
2018-07-26T12:37:33.470Z,33.70
2018-07-26T12:40:02.443Z,33.70
2018-07-26T12:42:31.563Z,33.80
2018-07-26T12:45:00.559Z,33.80
2018-07-26T12:47:29.599Z,33.80
2018-07-26T12:49:58.863Z,33.90
2018-07-26T12:52:27.875Z,33.90
2018-07-26T12:54:56.856Z,33.90
2018-07-26T12:57:25.860Z,34.00
2018-07-26T12:59:54.895Z,33.90
2018-07-26T13:02:23.865Z,33.80
2018-07-26T13:04:52.815Z,33.80
2018-07-26T13:07:21.772Z,33.90
2018-07-26T13:09:50.750Z,34.10
2018-07-26T13:12:19.757Z,34.10
2018-07-26T13:14:48.730Z,34.20
2018-07-26T13:17:17.809Z,34.30
2018-07-26T13:19:46.774Z,34.30
2018-07-26T13:22:15.802Z,34.30
2018-07-26T13:24:44.823Z,34.50
2018-07-26T13:27:13.749Z,34.60
2018-07-26T13:29:42.742Z,34.60
2018-07-26T13:32:11.739Z,34.70
2018-07-26T13:34:40.739Z,34.70
2018-07-26T13:39:38.360Z,34.80
2018-07-26T13:42:07.338Z,34.70
2018-07-26T13:44:36.289Z,34.70
2018-07-26T13:47:05.531Z,34.70
2018-07-26T13:49:34.531Z,34.80
2018-07-26T13:52:04.190Z,34.80
2018-07-26T13:54:33.241Z,34.80
2018-07-26T13:57:02.204Z,34.80
2018-07-26T13:59:31.192Z,34.70
2018-07-26T14:02:00.191Z,34.80
2018-07-26T14:04:29.149Z,34.80
2018-07-26T14:06:58.143Z,34.70
2018-07-26T14:09:27.128Z,34.50
2018-07-26T14:11:56.100Z,34.50
2018-07-26T14:14:25.184Z,34.50
2018-07-26T14:16:54.206Z,34.50
2018-07-26T14:19:23.226Z,34.60
2018-07-26T14:21:52.429Z,34.70
2018-07-26T14:24:21.497Z,34.90
2018-07-26T14:29:19.905Z,35.30
2018-07-26T14:31:48.799Z,35.40
2018-07-26T14:34:17.919Z,35.40
2018-07-26T14:36:47.432Z,35.30
2018-07-26T14:39:16.410Z,35.30
2018-07-26T14:41:45.381Z,35.30
2018-07-26T14:44:14.348Z,35.20
2018-07-26T14:46:43.324Z,35.00
2018-07-26T14:49:12.273Z,34.90
2018-07-26T14:51:41.272Z,34.90
2018-07-26T14:54:10.508Z,35.00
2018-07-26T14:56:39.472Z,34.80
2018-07-26T14:59:08.452Z,34.70
2018-07-26T15:01:37.478Z,34.70
2018-07-26T15:04:06.719Z,34.70
2018-07-26T15:06:35.634Z,34.80
2018-07-26T15:11:35.412Z,35.00
2018-07-26T15:14:04.423Z,35.10
2018-07-26T15:16:33.400Z,35.20
2018-07-26T15:19:02.366Z,35.40
2018-07-26T15:21:31.385Z,35.50
2018-07-26T15:24:00.361Z,35.70
2018-07-26T15:26:29.443Z,36.10
2018-07-26T15:28:58.640Z,36.50
2018-07-26T15:31:27.803Z,37.00
2018-07-26T15:36:25.899Z,38.50
2018-07-26T15:41:23.940Z,38.80
2018-07-26T15:43:52.886Z,39.40
2018-07-26T15:46:21.838Z,39.30
2018-07-26T15:48:50.799Z,39.30
2018-07-26T15:51:19.763Z,40.00
2018-07-26T15:53:48.699Z,40.60
2018-07-26T15:56:17.767Z,40.70
2018-07-26T15:58:46.760Z,41.50
2018-07-26T16:01:15.783Z,42.10
2018-07-26T16:03:44.769Z,42.80
2018-07-26T16:06:13.753Z,43.00
2018-07-26T16:08:43.264Z,43.50
2018-07-26T16:11:12.299Z,44.10
2018-07-26T16:13:41.278Z,44.30
2018-07-26T16:16:10.277Z,44.90
2018-07-26T16:18:39.237Z,45.10
2018-07-26T16:21:08.731Z,44.50
2018-07-26T16:23:37.719Z,44.20
2018-07-26T16:26:06.707Z,44.10
2018-07-26T16:28:35.719Z,44.50
2018-07-26T16:31:04.719Z,44.70
2018-07-26T16:33:33.946Z,44.70
2018-07-26T16:36:02.937Z,43.90
2018-07-26T16:41:00.583Z,43.80
2018-07-26T16:43:29.507Z,43.80
2018-07-26T16:45:58.543Z,43.80
2018-07-26T16:48:27.558Z,43.90
2018-07-26T16:50:56.557Z,44.10
2018-07-26T16:53:25.534Z,44.10
2018-07-26T16:55:54.513Z,44.60
2018-07-26T16:58:23.547Z,45.10
2018-07-26T17:00:52.511Z,45.80
2018-07-26T17:03:21.525Z,46.20
2018-07-26T17:05:50.479Z,46.40
2018-07-26T17:08:19.554Z,46.20
2018-07-26T17:10:48.643Z,46.30
2018-07-26T17:15:46.441Z,46.00
2018-07-26T17:18:15.443Z,45.40
2018-07-26T17:20:44.481Z,45.10
2018-07-26T17:23:13.452Z,45.00
2018-07-26T17:25:42.438Z,44.40
2018-07-26T17:28:11.419Z,44.30
2018-07-26T17:30:40.394Z,44.20
2018-07-26T17:33:09.378Z,44.00
2018-07-26T17:35:38.331Z,43.90
2018-07-26T17:38:07.424Z,43.80
2018-07-26T17:40:36.527Z,43.90
2018-07-26T17:43:05.522Z,43.80
2018-07-26T17:45:34.618Z,43.70
2018-07-26T17:48:03.846Z,43.20
2018-07-26T17:50:32.847Z,42.50
2018-07-26T17:55:31.335Z,40.00
2018-07-26T17:58:00.328Z,39.10
2018-07-26T18:00:30.224Z,38.20
2018-07-26T18:02:59.231Z,37.40
2018-07-26T18:05:28.403Z,36.70
2018-07-26T18:07:57.402Z,36.20
2018-07-26T18:10:26.376Z,35.70
2018-07-26T18:12:55.400Z,35.30
2018-07-26T18:15:24.407Z,34.90
2018-07-26T18:17:53.441Z,34.80
2018-07-26T18:20:22.409Z,34.50
2018-07-26T18:22:51.384Z,34.40
2018-07-26T18:25:20.417Z,34.20
2018-07-26T18:27:49.468Z,34.00
2018-07-26T18:30:18.474Z,33.70
2018-07-26T18:32:47.451Z,33.50
2018-07-26T18:35:16.438Z,33.30
2018-07-26T18:37:45.452Z,33.20
2018-07-26T18:42:43.139Z,32.90
2018-07-26T18:45:12.471Z,32.70
2018-07-26T18:47:42.422Z,32.60
2018-07-26T18:50:11.755Z,32.40
2018-07-26T18:52:41.406Z,32.20
2018-07-26T18:55:10.820Z,32.00
2018-07-26T18:57:40.297Z,31.90
2018-07-26T19:00:11.324Z,31.80
2018-07-26T19:02:40.540Z,31.60
2018-07-26T19:05:09.768Z,31.50
2018-07-26T19:07:38.721Z,31.40
2018-07-26T19:10:09.326Z,31.20
2018-07-26T19:12:39.308Z,31.20
2018-07-26T19:15:10.653Z,31.10
2018-07-26T19:17:40.436Z,31.00
2018-07-26T19:20:11.133Z,30.90
2018-07-26T19:22:40.366Z,30.80
2018-07-26T19:25:10.383Z,30.70
2018-07-26T19:27:39.380Z,30.60
2018-07-26T19:30:10.915Z,30.50
2018-07-26T19:32:39.896Z,30.40
2018-07-26T19:37:37.636Z,30.20
2018-07-26T19:40:08.027Z,30.20
2018-07-26T19:42:37.408Z,30.10
2018-07-26T19:47:35.321Z,29.90
2018-07-26T19:50:04.930Z,29.80
2018-07-26T19:52:34.014Z,29.70
2018-07-26T19:55:03.187Z,29.60
2018-07-26T19:57:32.220Z,29.60
2018-07-26T20:00:02.231Z,29.50
2018-07-26T20:05:00.515Z,29.40
2018-07-26T20:07:29.511Z,29.30
2018-07-26T20:09:59.465Z,29.20
2018-07-26T20:12:29.377Z,29.20
2018-07-26T20:17:27.147Z,29.10
2018-07-26T20:19:56.273Z,29.00
2018-07-26T20:22:25.351Z,29.00
2018-07-26T20:24:54.334Z,28.90
2018-07-26T20:27:23.667Z,28.90
2018-07-26T20:29:52.704Z,28.80
2018-07-26T20:32:21.728Z,28.70
2018-07-26T20:34:50.764Z,28.70
2018-07-26T20:37:19.715Z,28.60
2018-07-26T20:39:50.642Z,28.50
2018-07-26T20:42:19.747Z,28.50
2018-07-26T20:44:48.727Z,28.50
2018-07-26T20:47:17.719Z,28.50
2018-07-26T20:49:46.708Z,28.40
2018-07-26T20:52:15.703Z,28.30
2018-07-26T20:54:44.706Z,28.30
2018-07-26T20:57:13.720Z,28.20
2018-07-26T20:59:42.687Z,28.20
2018-07-26T21:02:11.868Z,28.10
2018-07-26T21:04:40.858Z,28.10
2018-07-26T21:07:09.854Z,28.00
2018-07-26T21:09:38.867Z,27.90
2018-07-26T21:12:07.941Z,27.90
2018-07-26T21:14:36.923Z,27.80
2018-07-26T21:17:05.955Z,27.80
2018-07-26T21:19:35.606Z,27.70
2018-07-26T21:22:04.633Z,27.70
2018-07-26T21:24:33.611Z,27.60
2018-07-26T21:27:02.608Z,27.60
2018-07-26T21:29:31.695Z,27.50
2018-07-26T21:32:00.670Z,27.50
2018-07-26T21:34:29.692Z,27.40
2018-07-26T21:36:58.785Z,27.40
2018-07-26T21:39:27.785Z,27.40
2018-07-26T21:41:56.735Z,27.30
2018-07-26T21:44:25.667Z,27.30
2018-07-26T21:46:55.066Z,27.20
2018-07-26T21:49:25.025Z,27.10
2018-07-26T21:51:54.246Z,27.00
2018-07-26T21:54:23.256Z,27.00
2018-07-26T21:56:52.236Z,26.90
2018-07-26T21:59:21.295Z,26.90
2018-07-26T22:01:50.231Z,26.80
2018-07-26T22:04:19.269Z,26.80
2018-07-26T22:06:48.300Z,26.70
2018-07-26T22:09:17.297Z,26.70
2018-07-26T22:11:46.289Z,26.60
2018-07-26T22:14:15.237Z,26.60
2018-07-26T22:16:45.019Z,26.50
2018-07-26T22:19:14.139Z,26.50
2018-07-26T22:21:43.106Z,26.50
2018-07-26T22:24:12.072Z,26.40
2018-07-26T22:26:41.102Z,26.40
2018-07-26T22:29:10.121Z,26.30
2018-07-26T22:31:39.122Z,26.20
2018-07-26T22:34:08.355Z,26.20
2018-07-26T22:36:38.301Z,26.10
2018-07-26T22:39:08.916Z,26.10
2018-07-26T22:41:38.415Z,26.10
2018-07-26T22:44:07.558Z,26.00
2018-07-26T22:46:36.538Z,26.00
2018-07-26T22:49:06.683Z,25.90
2018-07-26T22:51:35.646Z,25.80
2018-07-26T22:54:04.647Z,25.80
2018-07-26T22:56:33.824Z,25.70
2018-07-26T22:59:03.011Z,25.70
2018-07-26T23:01:32.039Z,25.70
2018-07-26T23:04:01.361Z,25.60
2018-07-26T23:06:30.345Z,25.60
2018-07-26T23:08:59.354Z,25.50
2018-07-26T23:11:28.322Z,25.50
2018-07-26T23:13:57.298Z,25.40
2018-07-26T23:16:26.283Z,25.40
2018-07-26T23:18:55.330Z,25.30
2018-07-26T23:21:24.302Z,25.30
2018-07-26T23:23:53.271Z,25.30
2018-07-26T23:26:22.405Z,25.20
2018-07-26T23:28:51.336Z,25.20
2018-07-26T23:33:48.905Z,25.10
2018-07-26T23:36:17.869Z,25.10
2018-07-26T23:38:46.850Z,25.00
2018-07-26T23:41:15.845Z,24.90
2018-07-26T23:43:44.836Z,24.90
2018-07-26T23:46:13.775Z,24.80
2018-07-26T23:48:42.771Z,24.80
2018-07-26T23:51:11.733Z,24.80
2018-07-26T23:53:40.723Z,24.80
2018-07-26T23:56:09.658Z,24.80
2018-07-26T23:58:38.670Z,24.70
